sensor_id;sensor_type;location;lat;lon;timestamp;pressure;altitude;pressure_sealevel;temperature;humidity
39295;BME280;52361;52.100;5.248;2023-03-11T00:00:06;100606.0;;;2.41;100.0
39295;BME280;52361;52.100;5.248;2023-03-11T00:03:20;100612.0;;;2.32;100.0
39295;BME280;52361;52.100;5.248;2023-03-11T00:04:57;100610.0;;;2.23;100.0
39295;BME280;52361;52.100;5.248;2023-03-11T00:06:33;100611.0;;;2.09;100.0
39295;BME280;52361;52.100;5.248;2023-03-11T00:08:12;100613.0;;;2.1;100.0
39295;BME280;52361;52.100;5.248;2023-03-11T00:11:25;100611.0;;;2.21;100.0
39295;BME280;52361;52.100;5.248;2023-03-11T00:13:03;100615.0;;;2.11;100.0
39295;BME280;52361;52.100;5.248;2023-03-11T00:14:41;100616.0;;;2.04;100.0
39295;BME280;52361;52.100;5.248;2023-03-11T00:17:53;100615.0;;;2.0;100.0
39295;BME280;52361;52.100;5.248;2023-03-11T00:19:30;100617.0;;;2.02;100.0
39295;BME280;52361;52.100;5.248;2023-03-11T00:21:13;100620.0;;;2.04;100.0
39295;BME280;52361;52.100;5.248;2023-03-11T00:22:50;100623.0;;;2.04;100.0
39295;BME280;52361;52.100;5.248;2023-03-11T00:26:04;100622.0;;;2.13;100.0
39295;BME280;52361;52.100;5.248;2023-03-11T00:27:40;100621.0;;;2.1;100.0
39295;BME280;52361;52.100;5.248;2023-03-11T00:29:16;100620.0;;;2.21;100.0
39295;BME280;52361;52.100;5.248;2023-03-11T00:32:28;100622.0;;;2.25;100.0
39295;BME280;52361;52.100;5.248;2023-03-11T00:34:04;100626.0;;;2.29;100.0
39295;BME280;52361;52.100;5.248;2023-03-11T00:35:41;100634.0;;;2.21;100.0
39295;BME280;52361;52.100;5.248;2023-03-11T00:38:54;100642.0;;;2.29;100.0
39295;BME280;52361;52.100;5.248;2023-03-11T00:40:32;100642.0;;;2.27;100.0
39295;BME280;52361;52.100;5.248;2023-03-11T00:46:59;100658.0;;;2.23;100.0
39295;BME280;52361;52.100;5.248;2023-03-11T00:48:36;100663.0;;;2.23;100.0
39295;BME280;52361;52.100;5.248;2023-03-11T00:50:15;100668.0;;;2.23;100.0
39295;BME280;52361;52.100;5.248;2023-03-11T00:53:28;100669.0;;;2.19;100.0
39295;BME280;52361;52.100;5.248;2023-03-11T00:55:05;100664.0;;;2.1;100.0
39295;BME280;52361;52.100;5.248;2023-03-11T00:56:41;100670.0;;;2.1;100.0
39295;BME280;52361;52.100;5.248;2023-03-11T00:59:54;100667.0;;;2.06;100.0
39295;BME280;52361;52.100;5.248;2023-03-11T01:01:30;100667.0;;;2.04;100.0
39295;BME280;52361;52.100;5.248;2023-03-11T01:03:06;100672.0;;;1.97;100.0
39295;BME280;52361;52.100;5.248;2023-03-11T01:04:43;100669.0;;;1.93;100.0
39295;BME280;52361;52.100;5.248;2023-03-11T01:07:56;100672.0;;;1.97;100.0
39295;BME280;52361;52.100;5.248;2023-03-11T01:09:33;100680.0;;;1.92;100.0
39295;BME280;52361;52.100;5.248;2023-03-11T01:11:09;100683.0;;;1.85;100.0
39295;BME280;52361;52.100;5.248;2023-03-11T01:14:22;100678.0;;;1.81;100.0
39295;BME280;52361;52.100;5.248;2023-03-11T01:15:58;100680.0;;;1.77;100.0
39295;BME280;52361;52.100;5.248;2023-03-11T01:17:35;100684.0;;;1.76;100.0
39295;BME280;52361;52.100;5.248;2023-03-11T01:20:49;100686.0;;;1.77;100.0
39295;BME280;52361;52.100;5.248;2023-03-11T01:22:25;100688.0;;;1.88;100.0
39295;BME280;52361;52.100;5.248;2023-03-11T01:24:02;100696.0;;;1.8;100.0
39295;BME280;52361;52.100;5.248;2023-03-11T01:25:38;100694.0;;;1.76;100.0
39295;BME280;52361;52.100;5.248;2023-03-11T01:28:51;100697.0;;;1.8;100.0
39295;BME280;52361;52.100;5.248;2023-03-11T01:30:28;100699.0;;;1.77;100.0
39295;BME280;52361;52.100;5.248;2023-03-11T01:32:05;100697.0;;;1.8;100.0
39295;BME280;52361;52.100;5.248;2023-03-11T01:35:19;100705.0;;;1.75;100.0
39295;BME280;52361;52.100;5.248;2023-03-11T01:36:58;100700.0;;;1.68;100.0
39295;BME280;52361;52.100;5.248;2023-03-11T01:38:34;100705.0;;;1.65;100.0
39295;BME280;52361;52.100;5.248;2023-03-11T01:40:14;100702.0;;;1.72;100.0
39295;BME280;52361;52.100;5.248;2023-03-11T01:43:49;100701.0;;;1.66;100.0
39295;BME280;52361;52.100;5.248;2023-03-11T01:45:40;100701.0;;;1.67;100.0
39295;BME280;52361;52.100;5.248;2023-03-11T01:47:44;100702.0;;;1.71;100.0
39295;BME280;52361;52.100;5.248;2023-03-11T01:49:21;100705.0;;;1.69;100.0
39295;BME280;52361;52.100;5.248;2023-03-11T01:50:58;100703.0;;;1.61;100.0
39295;BME280;52361;52.100;5.248;2023-03-11T01:54:15;100705.0;;;1.57;100.0
39295;BME280;52361;52.100;5.248;2023-03-11T01:55:53;100708.0;;;1.6;100.0
39295;BME280;52361;52.100;5.248;2023-03-11T01:57:30;100707.0;;;1.58;100.0
39295;BME280;52361;52.100;5.248;2023-03-11T01:59:10;100703.0;;;1.47;100.0
39295;BME280;52361;52.100;5.248;2023-03-11T02:02:30;100705.0;;;1.42;100.0
39295;BME280;52361;52.100;5.248;2023-03-11T02:04:09;100705.0;;;1.42;100.0
39295;BME280;52361;52.100;5.248;2023-03-11T02:05:46;100709.0;;;1.34;100.0
39295;BME280;52361;52.100;5.248;2023-03-11T02:07:24;100707.0;;;1.36;100.0
39295;BME280;52361;52.100;5.248;2023-03-11T02:10:38;100701.0;;;1.29;100.0
39295;BME280;52361;52.100;5.248;2023-03-11T02:12:16;100705.0;;;1.24;100.0
39295;BME280;52361;52.100;5.248;2023-03-11T02:13:53;100706.0;;;1.16;100.0
39295;BME280;52361;52.100;5.248;2023-03-11T02:17:08;100705.0;;;1.07;100.0
39295;BME280;52361;52.100;5.248;2023-03-11T02:18:44;100715.0;;;1.05;100.0
39295;BME280;52361;52.100;5.248;2023-03-11T02:20:26;100716.0;;;1.02;100.0
39295;BME280;52361;52.100;5.248;2023-03-11T02:22:10;100717.0;;;1.07;100.0
39295;BME280;52361;52.100;5.248;2023-03-11T02:25:39;100728.0;;;1.05;100.0
39295;BME280;52361;52.100;5.248;2023-03-11T02:27:18;100730.0;;;1.03;100.0
39295;BME280;52361;52.100;5.248;2023-03-11T02:28:57;100730.0;;;1.05;100.0
39295;BME280;52361;52.100;5.248;2023-03-11T02:30:34;100725.0;;;1.05;100.0
39295;BME280;52361;52.100;5.248;2023-03-11T02:33:50;100723.0;;;1.02;100.0
39295;BME280;52361;52.100;5.248;2023-03-11T02:35:28;100728.0;;;1.04;100.0
39295;BME280;52361;52.100;5.248;2023-03-11T02:37:06;100726.0;;;1.0;100.0
39295;BME280;52361;52.100;5.248;2023-03-11T02:38:44;100728.0;;;0.99;100.0
39295;BME280;52361;52.100;5.248;2023-03-11T02:44:09;100720.0;;;0.9;100.0
39295;BME280;52361;52.100;5.248;2023-03-11T02:45:47;100715.0;;;0.94;100.0
39295;BME280;52361;52.100;5.248;2023-03-11T02:47:24;100713.0;;;0.94;100.0
39295;BME280;52361;52.100;5.248;2023-03-11T02:50:38;100716.0;;;0.89;100.0
39295;BME280;52361;52.100;5.248;2023-03-11T02:52:16;100722.0;;;0.88;100.0
39295;BME280;52361;52.100;5.248;2023-03-11T02:53:56;100720.0;;;0.66;100.0
39295;BME280;52361;52.100;5.248;2023-03-11T02:55:34;100730.0;;;0.62;100.0
39295;BME280;52361;52.100;5.248;2023-03-11T02:58:47;100725.0;;;0.64;100.0
39295;BME280;52361;52.100;5.248;2023-03-11T03:00:24;100727.0;;;0.63;100.0
39295;BME280;52361;52.100;5.248;2023-03-11T03:02:01;100728.0;;;0.63;100.0
39295;BME280;52361;52.100;5.248;2023-03-11T03:05:13;100731.0;;;0.68;100.0
39295;BME280;52361;52.100;5.248;2023-03-11T03:06:49;100730.0;;;0.62;100.0
39295;BME280;52361;52.100;5.248;2023-03-11T03:08:25;100730.0;;;0.61;100.0
39295;BME280;52361;52.100;5.248;2023-03-11T03:11:39;100733.0;;;0.58;100.0
39295;BME280;52361;52.100;5.248;2023-03-11T03:13:16;100732.0;;;0.56;100.0
39295;BME280;52361;52.100;5.248;2023-03-11T03:14:52;100740.0;;;0.54;100.0
39295;BME280;52361;52.100;5.248;2023-03-11T03:16:28;100743.0;;;0.52;100.0
39295;BME280;52361;52.100;5.248;2023-03-11T03:19:40;100748.0;;;0.5;100.0
39295;BME280;52361;52.100;5.248;2023-03-11T03:21:17;100751.0;;;0.51;100.0
39295;BME280;52361;52.100;5.248;2023-03-11T03:22:53;100755.0;;;0.48;100.0
39295;BME280;52361;52.100;5.248;2023-03-11T03:26:05;100752.0;;;0.38;100.0
39295;BME280;52361;52.100;5.248;2023-03-11T03:27:41;100758.0;;;0.26;100.0
39295;BME280;52361;52.100;5.248;2023-03-11T03:29:17;100763.0;;;0.18;100.0
39295;BME280;52361;52.100;5.248;2023-03-11T03:32:29;100761.0;;;0.19;100.0
39295;BME280;52361;52.100;5.248;2023-03-11T03:34:06;100760.0;;;0.23;100.0
39295;BME280;52361;52.100;5.248;2023-03-11T03:35:43;100759.0;;;0.26;100.0
39295;BME280;52361;52.100;5.248;2023-03-11T03:37:20;100766.0;;;0.27;100.0
39295;BME280;52361;52.100;5.248;2023-03-11T03:40:33;100769.0;;;0.22;100.0
39295;BME280;52361;52.100;5.248;2023-03-11T03:42:09;100768.0;;;0.17;100.0
39295;BME280;52361;52.100;5.248;2023-03-11T03:43:46;100773.0;;;0.17;100.0
39295;BME280;52361;52.100;5.248;2023-03-11T03:46:58;100778.0;;;0.2;100.0
39295;BME280;52361;52.100;5.248;2023-03-11T03:48:34;100780.0;;;0.19;100.0
39295;BME280;52361;52.100;5.248;2023-03-11T03:50:11;100784.0;;;0.19;100.0
39295;BME280;52361;52.100;5.248;2023-03-11T03:53:24;100786.0;;;0.13;100.0
39295;BME280;52361;52.100;5.248;2023-03-11T03:55:00;100790.0;;;0.12;100.0
39295;BME280;52361;52.100;5.248;2023-03-11T03:56:36;100788.0;;;0.08;100.0
39295;BME280;52361;52.100;5.248;2023-03-11T03:58:13;100793.0;;;0.1;100.0
39295;BME280;52361;52.100;5.248;2023-03-11T04:01:25;100794.0;;;0.08;100.0
39295;BME280;52361;52.100;5.248;2023-03-11T04:03:01;100794.0;;;0.08;100.0
39295;BME280;52361;52.100;5.248;2023-03-11T04:04:38;100799.0;;;0.09;100.0
39295;BME280;52361;52.100;5.248;2023-03-11T04:07:53;100806.0;;;0.06;100.0
39295;BME280;52361;52.100;5.248;2023-03-11T04:09:30;100806.0;;;-0.03;100.0
39295;BME280;52361;52.100;5.248;2023-03-11T04:11:06;100806.0;;;-0.08;100.0
39295;BME280;52361;52.100;5.248;2023-03-11T04:14:18;100806.0;;;-0.19;100.0
39295;BME280;52361;52.100;5.248;2023-03-11T04:15:54;100801.0;;;-0.27;100.0
39295;BME280;52361;52.100;5.248;2023-03-11T04:17:30;100807.0;;;-0.31;100.0
39295;BME280;52361;52.100;5.248;2023-03-11T04:22:19;100803.0;;;-0.28;100.0
39295;BME280;52361;52.100;5.248;2023-03-11T04:23:56;100802.0;;;-0.26;100.0
39295;BME280;52361;52.100;5.248;2023-03-11T04:25:32;100803.0;;;-0.25;100.0
39295;BME280;52361;52.100;5.248;2023-03-11T04:28:44;100805.0;;;-0.19;100.0
39295;BME280;52361;52.100;5.248;2023-03-11T04:30:20;100806.0;;;-0.19;100.0
39295;BME280;52361;52.100;5.248;2023-03-11T04:31:57;100801.0;;;-0.22;100.0
39295;BME280;52361;52.100;5.248;2023-03-11T04:35:09;100813.0;;;-0.2;100.0
39295;BME280;52361;52.100;5.248;2023-03-11T04:36:46;100810.0;;;-0.24;100.0
39295;BME280;52361;52.100;5.248;2023-03-11T04:38:22;100815.0;;;-0.2;100.0
39295;BME280;52361;52.100;5.248;2023-03-11T04:41:35;100816.0;;;-0.25;100.0
39295;BME280;52361;52.100;5.248;2023-03-11T04:43:11;100819.0;;;-0.22;100.0
39295;BME280;52361;52.100;5.248;2023-03-11T04:44:47;100819.0;;;-0.26;100.0
39295;BME280;52361;52.100;5.248;2023-03-11T04:46:23;100820.0;;;-0.32;100.0
39295;BME280;52361;52.100;5.248;2023-03-11T04:49:36;100818.0;;;-0.27;100.0
39295;BME280;52361;52.100;5.248;2023-03-11T04:51:12;100818.0;;;-0.33;100.0
39295;BME280;52361;52.100;5.248;2023-03-11T04:52:48;100821.0;;;-0.31;100.0
39295;BME280;52361;52.100;5.248;2023-03-11T04:56:00;100828.0;;;-0.37;100.0
39295;BME280;52361;52.100;5.248;2023-03-11T04:57:36;100831.0;;;-0.37;100.0
39295;BME280;52361;52.100;5.248;2023-03-11T04:59:12;100835.0;;;-0.33;100.0
39295;BME280;52361;52.100;5.248;2023-03-11T05:02:26;100834.0;;;-0.32;100.0
39295;BME280;52361;52.100;5.248;2023-03-11T05:04:02;100837.0;;;-0.33;100.0
39295;BME280;52361;52.100;5.248;2023-03-11T05:05:38;100840.0;;;-0.31;100.0
39295;BME280;52361;52.100;5.248;2023-03-11T05:08:50;100833.0;;;-0.35;100.0
39295;BME280;52361;52.100;5.248;2023-03-11T05:10:26;100833.0;;;-0.38;100.0
39295;BME280;52361;52.100;5.248;2023-03-11T05:12:03;100827.0;;;-0.28;100.0
39295;BME280;52361;52.100;5.248;2023-03-11T05:13:41;100826.0;;;-0.3;100.0
39295;BME280;52361;52.100;5.248;2023-03-11T05:16:54;100825.0;;;-0.38;100.0
39295;BME280;52361;52.100;5.248;2023-03-11T05:18:30;100821.0;;;-0.4;100.0
39295;BME280;52361;52.100;5.248;2023-03-11T05:20:08;100833.0;;;-0.49;100.0
39295;BME280;52361;52.100;5.248;2023-03-11T05:24:56;100842.0;;;-0.61;100.0
39295;BME280;52361;52.100;5.248;2023-03-11T05:26:33;100852.0;;;-0.63;100.0
39295;BME280;52361;52.100;5.248;2023-03-11T05:29:45;100849.0;;;-0.62;100.0
39295;BME280;52361;52.100;5.248;2023-03-11T05:31:21;100852.0;;;-0.7;100.0
39295;BME280;52361;52.100;5.248;2023-03-11T05:32:58;100851.0;;;-0.71;100.0
39295;BME280;52361;52.100;5.248;2023-03-11T05:34:34;100846.0;;;-0.72;100.0
39295;BME280;52361;52.100;5.248;2023-03-11T05:37:46;100852.0;;;-0.75;100.0
39295;BME280;52361;52.100;5.248;2023-03-11T05:39:23;100858.0;;;-0.82;100.0
39295;BME280;52361;52.100;5.248;2023-03-11T05:40:59;100856.0;;;-0.81;100.0
39295;BME280;52361;52.100;5.248;2023-03-11T05:44:11;100865.0;;;-0.84;100.0
39295;BME280;52361;52.100;5.248;2023-03-11T05:45:47;100866.0;;;-0.84;100.0
39295;BME280;52361;52.100;5.248;2023-03-11T05:47:24;100864.0;;;-0.78;100.0
39295;BME280;52361;52.100;5.248;2023-03-11T05:50:37;100864.0;;;-0.84;100.0
39295;BME280;52361;52.100;5.248;2023-03-11T05:52:13;100871.0;;;-0.75;100.0
39295;BME280;52361;52.100;5.248;2023-03-11T05:53:49;100874.0;;;-0.76;100.0
39295;BME280;52361;52.100;5.248;2023-03-11T05:55:25;100880.0;;;-0.74;100.0
39295;BME280;52361;52.100;5.248;2023-03-11T05:58:37;100883.0;;;-0.74;100.0
39295;BME280;52361;52.100;5.248;2023-03-11T06:00:14;100881.0;;;-0.77;100.0
39295;BME280;52361;52.100;5.248;2023-03-11T06:01:51;100876.0;;;-0.77;100.0
39295;BME280;52361;52.100;5.248;2023-03-11T06:05:03;100886.0;;;-0.78;100.0
39295;BME280;52361;52.100;5.248;2023-03-11T06:06:40;100885.0;;;-0.86;100.0
39295;BME280;52361;52.100;5.248;2023-03-11T06:08:18;100886.0;;;-0.96;100.0
39295;BME280;52361;52.100;5.248;2023-03-11T06:11:30;100886.0;;;-1.04;100.0
39295;BME280;52361;52.100;5.248;2023-03-11T06:13:07;100889.0;;;-1.04;100.0
39295;BME280;52361;52.100;5.248;2023-03-11T06:14:44;100890.0;;;-1.08;100.0
39295;BME280;52361;52.100;5.248;2023-03-11T06:16:20;100891.0;;;-1.08;100.0
39295;BME280;52361;52.100;5.248;2023-03-11T06:19:32;100894.0;;;-1.07;100.0
39295;BME280;52361;52.100;5.248;2023-03-11T06:21:10;100892.0;;;-1.08;100.0
39295;BME280;52361;52.100;5.248;2023-03-11T06:22:51;100895.0;;;-1.02;100.0
39295;BME280;52361;52.100;5.248;2023-03-11T06:26:04;100895.0;;;-1.07;100.0
39295;BME280;52361;52.100;5.248;2023-03-11T06:27:41;100905.0;;;-1.1;100.0
39295;BME280;52361;52.100;5.248;2023-03-11T06:29:17;100903.0;;;-1.13;100.0
39295;BME280;52361;52.100;5.248;2023-03-11T06:32:30;100915.0;;;-1.11;100.0
39295;BME280;52361;52.100;5.248;2023-03-11T06:34:08;100917.0;;;-1.1;100.0
39295;BME280;52361;52.100;5.248;2023-03-11T06:35:54;100920.0;;;-1.08;100.0
39295;BME280;52361;52.100;5.248;2023-03-11T06:37:31;100925.0;;;-1.04;100.0
39295;BME280;52361;52.100;5.248;2023-03-11T06:40:46;100922.0;;;-0.99;100.0
39295;BME280;52361;52.100;5.248;2023-03-11T06:42:22;100922.0;;;-0.92;100.0
39295;BME280;52361;52.100;5.248;2023-03-11T06:43:58;100924.0;;;-0.85;100.0
39295;BME280;52361;52.100;5.248;2023-03-11T06:45:34;100923.0;;;-0.78;100.0
39295;BME280;52361;52.100;5.248;2023-03-11T06:48:47;100930.0;;;-0.84;100.0
39295;BME280;52361;52.100;5.248;2023-03-11T06:50:24;100930.0;;;-0.89;100.0
39295;BME280;52361;52.100;5.248;2023-03-11T06:52:00;100928.0;;;-0.82;100.0
39295;BME280;52361;52.100;5.248;2023-03-11T06:55:12;100934.0;;;-0.67;100.0
39295;BME280;52361;52.100;5.248;2023-03-11T06:56:48;100926.0;;;-0.53;100.0
39295;BME280;52361;52.100;5.248;2023-03-11T06:58:24;100927.0;;;-0.34;100.0
39295;BME280;52361;52.100;5.248;2023-03-11T07:01:39;100932.0;;;-0.18;100.0
39295;BME280;52361;52.100;5.248;2023-03-11T07:03:15;100934.0;;;-0.03;100.0
39295;BME280;52361;52.100;5.248;2023-03-11T07:04:51;100944.0;;;0.1;100.0
39295;BME280;52361;52.100;5.248;2023-03-11T07:08:04;100950.0;;;0.08;100.0
39295;BME280;52361;52.100;5.248;2023-03-11T07:11:18;100956.0;;;0.4;100.0
39295;BME280;52361;52.100;5.248;2023-03-11T07:12:56;100955.0;;;0.6;100.0
39295;BME280;52361;52.100;5.248;2023-03-11T07:16:10;100956.0;;;0.5;100.0
39295;BME280;52361;52.100;5.248;2023-03-11T07:17:48;100966.0;;;0.45;100.0
39295;BME280;52361;52.100;5.248;2023-03-11T07:19:24;100970.0;;;0.36;100.0
39295;BME280;52361;52.100;5.248;2023-03-11T07:22:37;100965.0;;;0.64;100.0
39295;BME280;52361;52.100;5.248;2023-03-11T07:24:14;100966.0;;;0.89;100.0
39295;BME280;52361;52.100;5.248;2023-03-11T07:25:50;100968.0;;;1.13;100.0
39295;BME280;52361;52.100;5.248;2023-03-11T07:27:27;100972.0;;;1.2;100.0
39295;BME280;52361;52.100;5.248;2023-03-11T07:30:40;100978.0;;;1.34;100.0
39295;BME280;52361;52.100;5.248;2023-03-11T07:32:15;100977.0;;;1.58;100.0
39295;BME280;52361;52.100;5.248;2023-03-11T07:33:52;100985.0;;;1.7;100.0
39295;BME280;52361;52.100;5.248;2023-03-11T07:37:05;100981.0;;;1.78;100.0
39295;BME280;52361;52.100;5.248;2023-03-11T07:38:42;100987.0;;;1.89;100.0
39295;BME280;52361;52.100;5.248;2023-03-11T07:40:18;100982.0;;;2.0;100.0
39295;BME280;52361;52.100;5.248;2023-03-11T07:43:30;100980.0;;;2.1;100.0
39295;BME280;52361;52.100;5.248;2023-03-11T07:45:08;100982.0;;;2.19;100.0
39295;BME280;52361;52.100;5.248;2023-03-11T07:46:45;100978.0;;;2.19;100.0
39295;BME280;52361;52.100;5.248;2023-03-11T07:48:21;100984.0;;;1.94;100.0
39295;BME280;52361;52.100;5.248;2023-03-11T07:51:35;100991.0;;;1.83;100.0
39295;BME280;52361;52.100;5.248;2023-03-11T07:53:12;100989.0;;;1.74;100.0
39295;BME280;52361;52.100;5.248;2023-03-11T07:54:48;100989.0;;;2.04;100.0
39295;BME280;52361;52.100;5.248;2023-03-11T07:58:03;100998.0;;;2.27;100.0
39295;BME280;52361;52.100;5.248;2023-03-11T07:59:40;101000.0;;;2.48;100.0
39295;BME280;52361;52.100;5.248;2023-03-11T08:01:17;101007.0;;;2.79;100.0
39295;BME280;52361;52.100;5.248;2023-03-11T08:04:31;101007.0;;;3.08;100.0
39295;BME280;52361;52.100;5.248;2023-03-11T08:06:11;101014.0;;;3.35;100.0
39295;BME280;52361;52.100;5.248;2023-03-11T08:07:47;101012.0;;;3.61;100.0
39295;BME280;52361;52.100;5.248;2023-03-11T08:09:23;101013.0;;;3.78;100.0
39295;BME280;52361;52.100;5.248;2023-03-11T08:12:38;101012.0;;;4.01;100.0
39295;BME280;52361;52.100;5.248;2023-03-11T08:15:51;101014.0;;;4.53;100.0
39295;BME280;52361;52.100;5.248;2023-03-11T08:19:03;101018.0;;;4.91;99.63
39295;BME280;52361;52.100;5.248;2023-03-11T08:20:39;101018.0;;;5.01;99.73
39295;BME280;52361;52.100;5.248;2023-03-11T08:22:16;101018.0;;;5.17;96.85
39295;BME280;52361;52.100;5.248;2023-03-11T08:25:32;101018.0;;;5.07;92.15
39295;BME280;52361;52.100;5.248;2023-03-11T08:27:08;101017.0;;;5.08;91.49
39295;BME280;52361;52.100;5.248;2023-03-11T08:28:44;101018.0;;;5.32;93.15
39295;BME280;52361;52.100;5.248;2023-03-11T08:30:23;101024.0;;;5.32;93.78
39295;BME280;52361;52.100;5.248;2023-03-11T08:33:39;101025.0;;;5.34;95.21
39295;BME280;52361;52.100;5.248;2023-03-11T08:35:15;101032.0;;;5.75;92.41
39295;BME280;52361;52.100;5.248;2023-03-11T08:36:52;101035.0;;;5.71;92.59
39295;BME280;52361;52.100;5.248;2023-03-11T08:40:05;101032.0;;;5.95;92.93
39295;BME280;52361;52.100;5.248;2023-03-11T08:41:41;101037.0;;;5.96;91.5
39295;BME280;52361;52.100;5.248;2023-03-11T08:43:17;101040.0;;;6.0;88.89
39295;BME280;52361;52.100;5.248;2023-03-11T08:44:53;101039.0;;;6.05;89.12
39295;BME280;52361;52.100;5.248;2023-03-11T08:48:10;101037.0;;;6.16;89.43
39295;BME280;52361;52.100;5.248;2023-03-11T08:49:47;101031.0;;;6.53;88.13
39295;BME280;52361;52.100;5.248;2023-03-11T08:51:24;101030.0;;;6.7;80.72
39295;BME280;52361;52.100;5.248;2023-03-11T08:54:37;101034.0;;;6.65;84.92
39295;BME280;52361;52.100;5.248;2023-03-11T08:56:14;101041.0;;;6.79;83.45
39295;BME280;52361;52.100;5.248;2023-03-11T08:57:51;101044.0;;;6.77;82.0
39295;BME280;52361;52.100;5.248;2023-03-11T08:59:28;101044.0;;;6.75;84.0
39295;BME280;52361;52.100;5.248;2023-03-11T09:02:42;101051.0;;;6.84;78.52
39295;BME280;52361;52.100;5.248;2023-03-11T09:04:18;101055.0;;;6.79;82.48
39295;BME280;52361;52.100;5.248;2023-03-11T09:05:56;101060.0;;;6.78;83.4
39295;BME280;52361;52.100;5.248;2023-03-11T09:09:09;101064.0;;;6.66;83.9
39295;BME280;52361;52.100;5.248;2023-03-11T09:10:45;101064.0;;;6.78;82.1
39295;BME280;52361;52.100;5.248;2023-03-11T09:12:21;101065.0;;;7.08;82.19
39295;BME280;52361;52.100;5.248;2023-03-11T09:15:33;101067.0;;;7.38;78.78
39295;BME280;52361;52.100;5.248;2023-03-11T09:17:10;101069.0;;;7.47;77.99
39295;BME280;52361;52.100;5.248;2023-03-11T09:18:46;101068.0;;;7.39;77.91
39295;BME280;52361;52.100;5.248;2023-03-11T09:20:22;101072.0;;;7.32;77.99
39295;BME280;52361;52.100;5.248;2023-03-11T09:23:35;101074.0;;;7.68;76.16
39295;BME280;52361;52.100;5.248;2023-03-11T09:25:12;101074.0;;;7.85;72.99
39295;BME280;52361;52.100;5.248;2023-03-11T09:26:49;101075.0;;;7.96;74.88
39295;BME280;52361;52.100;5.248;2023-03-11T09:30:02;101076.0;;;7.8;72.58
39295;BME280;52361;52.100;5.248;2023-03-11T09:31:39;101072.0;;;7.89;72.03
39295;BME280;52361;52.100;5.248;2023-03-11T09:33:15;101068.0;;;7.79;72.72
39295;BME280;52361;52.100;5.248;2023-03-11T09:36:27;101071.0;;;7.83;78.23
39295;BME280;52361;52.100;5.248;2023-03-11T09:38:03;101067.0;;;7.71;76.25
39295;BME280;52361;52.100;5.248;2023-03-11T09:43:23;101055.0;;;7.78;75.91
39295;BME280;52361;52.100;5.248;2023-03-11T09:45:10;101063.0;;;7.72;73.75
39295;BME280;52361;52.100;5.248;2023-03-11T09:47:00;101069.0;;;8.23;75.8
39295;BME280;52361;52.100;5.248;2023-03-11T09:49:51;101072.0;;;8.6;71.36
39295;BME280;52361;52.100;5.248;2023-03-11T09:53:28;101068.0;;;8.43;70.7
39295;BME280;52361;52.100;5.248;2023-03-11T09:55:21;101068.0;;;8.73;72.5
39295;BME280;52361;52.100;5.248;2023-03-11T09:57:02;101071.0;;;9.07;69.72
39295;BME280;52361;52.100;5.248;2023-03-11T09:58:42;101071.0;;;9.27;68.67
39295;BME280;52361;52.100;5.248;2023-03-11T10:00:22;101067.0;;;9.32;67.8
39295;BME280;52361;52.100;5.248;2023-03-11T10:03:35;101073.0;;;9.13;65.72
39295;BME280;52361;52.100;5.248;2023-03-11T10:05:15;101070.0;;;9.32;63.58
39295;BME280;52361;52.100;5.248;2023-03-11T10:06:56;101072.0;;;9.5;67.47
39295;BME280;52361;52.100;5.248;2023-03-11T10:08:41;101076.0;;;9.23;69.74
39295;BME280;52361;52.100;5.248;2023-03-11T10:12:02;101075.0;;;9.36;66.42
39295;BME280;52361;52.100;5.248;2023-03-11T10:13:48;101081.0;;;9.09;65.58
39295;BME280;52361;52.100;5.248;2023-03-11T10:15:38;101078.0;;;9.38;66.75
39295;BME280;52361;52.100;5.248;2023-03-11T10:17:35;101085.0;;;9.13;69.08
39295;BME280;52361;52.100;5.248;2023-03-11T10:19:24;101085.0;;;9.27;67.94
39295;BME280;52361;52.100;5.248;2023-03-11T10:21:10;101090.0;;;9.25;66.66
39295;BME280;52361;52.100;5.248;2023-03-11T10:24:53;101088.0;;;9.34;68.83
39295;BME280;52361;52.100;5.248;2023-03-11T10:26:35;101082.0;;;9.3;65.27
39295;BME280;52361;52.100;5.248;2023-03-11T10:28:13;101085.0;;;9.11;68.83
39295;BME280;52361;52.100;5.248;2023-03-11T10:29:55;101083.0;;;8.93;66.77
39295;BME280;52361;52.100;5.248;2023-03-11T10:31:36;101081.0;;;8.8;69.88
39295;BME280;52361;52.100;5.248;2023-03-11T10:35:06;101084.0;;;8.78;66.08
39295;BME280;52361;52.100;5.248;2023-03-11T10:36:56;101082.0;;;8.98;64.91
39295;BME280;52361;52.100;5.248;2023-03-11T10:38:38;101080.0;;;8.56;64.08
39295;BME280;52361;52.100;5.248;2023-03-11T10:40:27;101085.0;;;8.73;67.78
39295;BME280;52361;52.100;5.248;2023-03-11T10:42:10;101078.0;;;8.65;67.13
39295;BME280;52361;52.100;5.248;2023-03-11T10:45:35;101080.0;;;8.49;67.22
39295;BME280;52361;52.100;5.248;2023-03-11T10:47:16;101081.0;;;8.4;70.67
39295;BME280;52361;52.100;5.248;2023-03-11T10:48:54;101081.0;;;8.52;72.81
39295;BME280;52361;52.100;5.248;2023-03-11T10:50:33;101073.0;;;8.73;68.31
39295;BME280;52361;52.100;5.248;2023-03-11T10:53:49;101072.0;;;8.77;64.11
39295;BME280;52361;52.100;5.248;2023-03-11T10:55:26;101070.0;;;8.92;67.38
39295;BME280;52361;52.100;5.248;2023-03-11T10:57:04;101071.0;;;9.23;71.77
39295;BME280;52361;52.100;5.248;2023-03-11T10:58:48;101075.0;;;9.42;67.36
39295;BME280;52361;52.100;5.248;2023-03-11T11:02:22;101077.0;;;9.61;67.8
39295;BME280;52361;52.100;5.248;2023-03-11T11:04:00;101076.0;;;10.17;59.5
39295;BME280;52361;52.100;5.248;2023-03-11T11:05:37;101084.0;;;10.4;60.23
39295;BME280;52361;52.100;5.248;2023-03-11T11:07:27;101081.0;;;10.25;56.45
39295;BME280;52361;52.100;5.248;2023-03-11T11:10:51;101084.0;;;10.38;61.26
39295;BME280;52361;52.100;5.248;2023-03-11T11:12:28;101090.0;;;10.8;57.98
39295;BME280;52361;52.100;5.248;2023-03-11T11:14:04;101091.0;;;11.0;55.42
39295;BME280;52361;52.100;5.248;2023-03-11T11:15:50;101087.0;;;11.11;53.15
39295;BME280;52361;52.100;5.248;2023-03-11T11:19:10;101088.0;;;11.32;56.05
39295;BME280;52361;52.100;5.248;2023-03-11T11:20:54;101090.0;;;11.02;56.13
39295;BME280;52361;52.100;5.248;2023-03-11T11:22:48;101087.0;;;11.22;54.28
39295;BME280;52361;52.100;5.248;2023-03-11T11:24:27;101082.0;;;11.14;56.66
39295;BME280;52361;52.100;5.248;2023-03-11T11:26:06;101093.0;;;10.96;57.75
39295;BME280;52361;52.100;5.248;2023-03-11T11:29:30;101093.0;;;10.82;53.67
39295;BME280;52361;52.100;5.248;2023-03-11T11:31:19;101096.0;;;10.67;54.74